sensor_id;sensor_type;location;lat;lon;timestamp;temperature;humidity
22738;DHT22;11536;50.860;4.286;2023-04-24T00:01:41;10.70;99.90
22738;DHT22;11536;50.860;4.286;2023-04-24T00:04:08;10.70;99.90
22738;DHT22;11536;50.860;4.286;2023-04-24T00:06:36;10.60;99.90
22738;DHT22;11536;50.860;4.286;2023-04-24T00:09:03;10.60;99.90
22738;DHT22;11536;50.860;4.286;2023-04-24T00:11:29;10.70;99.90
22738;DHT22;11536;50.860;4.286;2023-04-24T00:13:56;10.60;99.90
22738;DHT22;11536;50.860;4.286;2023-04-24T00:16:22;10.70;99.90
22738;DHT22;11536;50.860;4.286;2023-04-24T00:18:48;10.60;99.90
22738;DHT22;11536;50.860;4.286;2023-04-24T00:21:14;10.60;99.90
22738;DHT22;11536;50.860;4.286;2023-04-24T00:23:41;10.60;99.90
22738;DHT22;11536;50.860;4.286;2023-04-24T00:26:07;10.60;99.90
22738;DHT22;11536;50.860;4.286;2023-04-24T00:28:32;10.60;99.90
22738;DHT22;11536;50.860;4.286;2023-04-24T00:30:58;10.60;99.90
22738;DHT22;11536;50.860;4.286;2023-04-24T00:33:23;10.60;99.90
22738;DHT22;11536;50.860;4.286;2023-04-24T00:35:49;10.60;99.90
22738;DHT22;11536;50.860;4.286;2023-04-24T00:38:15;10.60;99.90
22738;DHT22;11536;50.860;4.286;2023-04-24T00:40:40;10.60;99.90
22738;DHT22;11536;50.860;4.286;2023-04-24T00:43:06;10.50;99.90
22738;DHT22;11536;50.860;4.286;2023-04-24T00:45:32;10.60;99.90
22738;DHT22;11536;50.860;4.286;2023-04-24T00:47:58;10.50;99.90
22738;DHT22;11536;50.860;4.286;2023-04-24T00:50:24;10.50;99.90
22738;DHT22;11536;50.860;4.286;2023-04-24T00:52:50;10.50;99.90
22738;DHT22;11536;50.860;4.286;2023-04-24T00:55:16;10.50;99.90
22738;DHT22;11536;50.860;4.286;2023-04-24T00:57:43;10.50;99.90
22738;DHT22;11536;50.860;4.286;2023-04-24T01:00:09;10.50;99.90
22738;DHT22;11536;50.860;4.286;2023-04-24T01:02:39;10.50;99.90
22738;DHT22;11536;50.860;4.286;2023-04-24T01:05:09;10.50;99.90
22738;DHT22;11536;50.860;4.286;2023-04-24T01:07:35;10.50;99.90
22738;DHT22;11536;50.860;4.286;2023-04-24T01:10:01;10.50;99.90
22738;DHT22;11536;50.860;4.286;2023-04-24T01:12:27;10.50;99.90
22738;DHT22;11536;50.860;4.286;2023-04-24T01:14:54;10.50;99.90
22738;DHT22;11536;50.860;4.286;2023-04-24T01:17:20;10.50;99.90
22738;DHT22;11536;50.860;4.286;2023-04-24T01:19:46;10.40;99.90
22738;DHT22;11536;50.860;4.286;2023-04-24T01:22:15;10.50;99.90
22738;DHT22;11536;50.860;4.286;2023-04-24T01:24:42;10.40;99.90
22738;DHT22;11536;50.860;4.286;2023-04-24T01:27:09;10.40;99.90
22738;DHT22;11536;50.860;4.286;2023-04-24T01:29:35;10.40;99.90
22738;DHT22;11536;50.860;4.286;2023-04-24T01:32:02;10.40;99.90
22738;DHT22;11536;50.860;4.286;2023-04-24T01:34:28;10.40;99.90
22738;DHT22;11536;50.860;4.286;2023-04-24T01:36:53;10.40;99.90
22738;DHT22;11536;50.860;4.286;2023-04-24T01:39:19;10.30;99.90
22738;DHT22;11536;50.860;4.286;2023-04-24T01:41:46;10.30;99.90
22738;DHT22;11536;50.860;4.286;2023-04-24T01:44:12;10.30;99.90
22738;DHT22;11536;50.860;4.286;2023-04-24T01:46:38;10.30;99.90
22738;DHT22;11536;50.860;4.286;2023-04-24T01:49:03;10.30;99.90
22738;DHT22;11536;50.860;4.286;2023-04-24T01:51:29;10.30;99.90
22738;DHT22;11536;50.860;4.286;2023-04-24T01:53:55;10.40;99.90
22738;DHT22;11536;50.860;4.286;2023-04-24T01:56:22;10.30;99.90
22738;DHT22;11536;50.860;4.286;2023-04-24T01:58:49;10.30;99.90
22738;DHT22;11536;50.860;4.286;2023-04-24T02:01:23;10.30;99.90
22738;DHT22;11536;50.860;4.286;2023-04-24T02:03:49;10.30;99.90
22738;DHT22;11536;50.860;4.286;2023-04-24T02:06:15;10.30;99.90
22738;DHT22;11536;50.860;4.286;2023-04-24T02:08:41;10.30;99.90
22738;DHT22;11536;50.860;4.286;2023-04-24T02:11:08;10.30;99.90
22738;DHT22;11536;50.860;4.286;2023-04-24T02:13:34;10.30;99.90
22738;DHT22;11536;50.860;4.286;2023-04-24T02:16:00;10.30;99.90
22738;DHT22;11536;50.860;4.286;2023-04-24T02:18:26;10.40;99.90
22738;DHT22;11536;50.860;4.286;2023-04-24T02:20:51;10.30;99.90
22738;DHT22;11536;50.860;4.286;2023-04-24T02:23:17;10.30;99.90
22738;DHT22;11536;50.860;4.286;2023-04-24T02:25:42;10.30;99.90
22738;DHT22;11536;50.860;4.286;2023-04-24T02:28:08;10.30;99.90
22738;DHT22;11536;50.860;4.286;2023-04-24T02:30:34;10.30;99.90
22738;DHT22;11536;50.860;4.286;2023-04-24T02:32:59;10.30;99.90
22738;DHT22;11536;50.860;4.286;2023-04-24T02:35:25;10.30;99.90
22738;DHT22;11536;50.860;4.286;2023-04-24T02:37:51;10.30;99.90
22738;DHT22;11536;50.860;4.286;2023-04-24T02:40:16;10.30;99.90
22738;DHT22;11536;50.860;4.286;2023-04-24T02:42:42;10.30;99.90
22738;DHT22;11536;50.860;4.286;2023-04-24T02:45:08;10.30;99.90
22738;DHT22;11536;50.860;4.286;2023-04-24T02:47:33;10.30;99.90
22738;DHT22;11536;50.860;4.286;2023-04-24T02:49:59;10.30;99.90
22738;DHT22;11536;50.860;4.286;2023-04-24T02:52:25;10.20;99.90
22738;DHT22;11536;50.860;4.286;2023-04-24T02:54:50;10.20;99.90
22738;DHT22;11536;50.860;4.286;2023-04-24T02:57:16;10.20;99.90
22738;DHT22;11536;50.860;4.286;2023-04-24T02:59:41;10.20;99.90
22738;DHT22;11536;50.860;4.286;2023-04-24T03:02:07;10.20;99.90
22738;DHT22;11536;50.860;4.286;2023-04-24T03:04:33;10.20;99.90
22738;DHT22;11536;50.860;4.286;2023-04-24T03:06:59;10.20;99.90
22738;DHT22;11536;50.860;4.286;2023-04-24T03:09:24;10.10;99.90
22738;DHT22;11536;50.860;4.286;2023-04-24T03:11:50;10.10;99.90
22738;DHT22;11536;50.860;4.286;2023-04-24T03:14:16;10.10;99.90
22738;DHT22;11536;50.860;4.286;2023-04-24T03:16:42;10.10;99.90
22738;DHT22;11536;50.860;4.286;2023-04-24T03:19:07;10.10;99.90
22738;DHT22;11536;50.860;4.286;2023-04-24T03:21:33;10.10;99.90
22738;DHT22;11536;50.860;4.286;2023-04-24T03:24:01;10.00;99.90
22738;DHT22;11536;50.860;4.286;2023-04-24T03:26:26;10.00;99.90
22738;DHT22;11536;50.860;4.286;2023-04-24T03:28:52;10.10;99.90
22738;DHT22;11536;50.860;4.286;2023-04-24T03:31:17;10.10;99.90
22738;DHT22;11536;50.860;4.286;2023-04-24T03:33:44;10.10;99.90
22738;DHT22;11536;50.860;4.286;2023-04-24T03:36:10;10.10;99.90
22738;DHT22;11536;50.860;4.286;2023-04-24T03:38:35;10.10;99.90
22738;DHT22;11536;50.860;4.286;2023-04-24T03:41:01;10.10;99.90
22738;DHT22;11536;50.860;4.286;2023-04-24T03:43:27;10.10;99.90
22738;DHT22;11536;50.860;4.286;2023-04-24T03:45:53;10.10;99.90
22738;DHT22;11536;50.860;4.286;2023-04-24T03:48:18;10.10;99.90
22738;DHT22;11536;50.860;4.286;2023-04-24T03:50:44;10.10;99.90
22738;DHT22;11536;50.860;4.286;2023-04-24T03:53:10;10.20;99.90
22738;DHT22;11536;50.860;4.286;2023-04-24T03:55:35;10.20;99.90
22738;DHT22;11536;50.860;4.286;2023-04-24T03:58:01;10.20;99.90
22738;DHT22;11536;50.860;4.286;2023-04-24T04:00:27;10.20;99.90
22738;DHT22;11536;50.860;4.286;2023-04-24T04:02:53;10.10;99.90
22738;DHT22;11536;50.860;4.286;2023-04-24T04:05:18;10.10;99.90
22738;DHT22;11536;50.860;4.286;2023-04-24T04:07:44;10.20;99.90
22738;DHT22;11536;50.860;4.286;2023-04-24T04:10:10;10.20;99.90
22738;DHT22;11536;50.860;4.286;2023-04-24T04:12:35;10.20;99.90
22738;DHT22;11536;50.860;4.286;2023-04-24T04:15:01;10.20;99.90
22738;DHT22;11536;50.860;4.286;2023-04-24T04:17:26;10.20;99.90
22738;DHT22;11536;50.860;4.286;2023-04-24T04:19:52;10.10;99.90
22738;DHT22;11536;50.860;4.286;2023-04-24T04:22:18;10.10;99.90
22738;DHT22;11536;50.860;4.286;2023-04-24T04:24:43;10.10;99.90
22738;DHT22;11536;50.860;4.286;2023-04-24T04:27:09;10.10;99.90
22738;DHT22;11536;50.860;4.286;2023-04-24T04:29:36;10.10;99.90
22738;DHT22;11536;50.860;4.286;2023-04-24T04:32:02;10.10;99.90
22738;DHT22;11536;50.860;4.286;2023-04-24T04:34:28;10.00;99.90
22738;DHT22;11536;50.860;4.286;2023-04-24T04:36:55;10.00;99.90
22738;DHT22;11536;50.860;4.286;2023-04-24T04:39:20;10.00;99.90
22738;DHT22;11536;50.860;4.286;2023-04-24T04:41:46;10.00;99.90
22738;DHT22;11536;50.860;4.286;2023-04-24T04:44:14;10.10;99.90
22738;DHT22;11536;50.860;4.286;2023-04-24T04:46:40;10.00;99.90
22738;DHT22;11536;50.860;4.286;2023-04-24T04:49:07;10.00;99.90
22738;DHT22;11536;50.860;4.286;2023-04-24T04:51:34;10.00;99.90
22738;DHT22;11536;50.860;4.286;2023-04-24T04:54:00;10.00;99.90
22738;DHT22;11536;50.860;4.286;2023-04-24T04:56:25;10.00;99.90
22738;DHT22;11536;50.860;4.286;2023-04-24T04:58:51;10.00;99.90
22738;DHT22;11536;50.860;4.286;2023-04-24T05:01:17;10.00;99.90
22738;DHT22;11536;50.860;4.286;2023-04-24T05:03:42;9.90;99.90
22738;DHT22;11536;50.860;4.286;2023-04-24T05:06:08;9.90;99.90
22738;DHT22;11536;50.860;4.286;2023-04-24T05:08:34;9.90;99.90
22738;DHT22;11536;50.860;4.286;2023-04-24T05:10:59;10.00;99.90
22738;DHT22;11536;50.860;4.286;2023-04-24T05:13:25;9.90;99.90
22738;DHT22;11536;50.860;4.286;2023-04-24T05:15:51;9.90;99.90
22738;DHT22;11536;50.860;4.286;2023-04-24T05:18:17;9.90;99.90
22738;DHT22;11536;50.860;4.286;2023-04-24T05:20:43;9.90;99.90
22738;DHT22;11536;50.860;4.286;2023-04-24T05:23:09;9.80;99.90
22738;DHT22;11536;50.860;4.286;2023-04-24T05:25:35;9.90;99.90
22738;DHT22;11536;50.860;4.286;2023-04-24T05:28:01;9.90;99.90
22738;DHT22;11536;50.860;4.286;2023-04-24T05:30:28;9.80;99.90
22738;DHT22;11536;50.860;4.286;2023-04-24T05:32:54;9.80;99.90
22738;DHT22;11536;50.860;4.286;2023-04-24T05:35:22;9.80;99.90
22738;DHT22;11536;50.860;4.286;2023-04-24T05:37:48;9.80;99.90
22738;DHT22;11536;50.860;4.286;2023-04-24T05:40:13;9.80;99.90
22738;DHT22;11536;50.860;4.286;2023-04-24T05:42:39;9.80;99.90
22738;DHT22;11536;50.860;4.286;2023-04-24T05:45:05;9.70;99.90
22738;DHT22;11536;50.860;4.286;2023-04-24T05:47:31;9.80;99.90
22738;DHT22;11536;50.860;4.286;2023-04-24T05:49:57;9.80;99.90
22738;DHT22;11536;50.860;4.286;2023-04-24T05:52:22;9.80;99.90
22738;DHT22;11536;50.860;4.286;2023-04-24T05:54:48;9.80;99.90
22738;DHT22;11536;50.860;4.286;2023-04-24T05:57:13;9.80;99.90
22738;DHT22;11536;50.860;4.286;2023-04-24T05:59:40;9.70;99.90
22738;DHT22;11536;50.860;4.286;2023-04-24T06:02:06;9.70;99.90
22738;DHT22;11536;50.860;4.286;2023-04-24T06:04:33;9.80;99.90
22738;DHT22;11536;50.860;4.286;2023-04-24T06:06:59;9.70;99.90
22738;DHT22;11536;50.860;4.286;2023-04-24T06:09:25;9.80;99.90
22738;DHT22;11536;50.860;4.286;2023-04-24T06:11:51;9.70;99.90
22738;DHT22;11536;50.860;4.286;2023-04-24T06:14:20;9.70;99.90
22738;DHT22;11536;50.860;4.286;2023-04-24T06:16:46;9.70;99.90
22738;DHT22;11536;50.860;4.286;2023-04-24T06:19:12;9.70;99.90
22738;DHT22;11536;50.860;4.286;2023-04-24T06:21:37;9.80;99.90
22738;DHT22;11536;50.860;4.286;2023-04-24T06:24:03;9.70;99.90
22738;DHT22;11536;50.860;4.286;2023-04-24T06:26:29;9.70;99.90
22738;DHT22;11536;50.860;4.286;2023-04-24T06:28:55;9.70;99.90
22738;DHT22;11536;50.860;4.286;2023-04-24T06:31:21;9.70;99.90
22738;DHT22;11536;50.860;4.286;2023-04-24T06:33:48;9.70;99.90
22738;DHT22;11536;50.860;4.286;2023-04-24T06:36:15;9.70;99.90
22738;DHT22;11536;50.860;4.286;2023-04-24T06:38:41;9.70;99.90
22738;DHT22;11536;50.860;4.286;2023-04-24T06:41:07;9.80;99.90
22738;DHT22;11536;50.860;4.286;2023-04-24T06:43:33;9.70;99.90
22738;DHT22;11536;50.860;4.286;2023-04-24T06:45:59;9.70;99.90
22738;DHT22;11536;50.860;4.286;2023-04-24T06:48:26;9.70;99.90
22738;DHT22;11536;50.860;4.286;2023-04-24T06:50:52;9.70;99.90
22738;DHT22;11536;50.860;4.286;2023-04-24T06:53:18;9.80;99.90
22738;DHT22;11536;50.860;4.286;2023-04-24T06:55:43;9.80;99.90
22738;DHT22;11536;50.860;4.286;2023-04-24T06:58:11;9.80;99.90
22738;DHT22;11536;50.860;4.286;2023-04-24T07:00:37;9.80;99.90
22738;DHT22;11536;50.860;4.286;2023-04-24T07:03:04;9.90;99.90
22738;DHT22;11536;50.860;4.286;2023-04-24T07:05:31;9.90;99.90
22738;DHT22;11536;50.860;4.286;2023-04-24T07:07:59;9.90;99.90
22738;DHT22;11536;50.860;4.286;2023-04-24T07:10:25;9.90;99.90
22738;DHT22;11536;50.860;4.286;2023-04-24T07:12:54;9.90;99.90
22738;DHT22;11536;50.860;4.286;2023-04-24T07:15:20;9.90;99.90
22738;DHT22;11536;50.860;4.286;2023-04-24T07:17:46;10.00;99.90
22738;DHT22;11536;50.860;4.286;2023-04-24T07:20:11;10.00;99.90
22738;DHT22;11536;50.860;4.286;2023-04-24T07:22:37;10.10;99.90
22738;DHT22;11536;50.860;4.286;2023-04-24T07:25:04;10.10;99.90
22738;DHT22;11536;50.860;4.286;2023-04-24T07:27:30;10.00;99.90
22738;DHT22;11536;50.860;4.286;2023-04-24T07:29:56;10.10;99.90
22738;DHT22;11536;50.860;4.286;2023-04-24T07:32:21;10.10;99.90
22738;DHT22;11536;50.860;4.286;2023-04-24T07:34:47;10.10;99.90
22738;DHT22;11536;50.860;4.286;2023-04-24T07:37:12;10.10;99.90
22738;DHT22;11536;50.860;4.286;2023-04-24T07:39:38;10.00;99.90
22738;DHT22;11536;50.860;4.286;2023-04-24T07:42:04;10.00;99.90
22738;DHT22;11536;50.860;4.286;2023-04-24T07:44:29;10.00;99.90
22738;DHT22;11536;50.860;4.286;2023-04-24T07:46:55;10.00;99.90
22738;DHT22;11536;50.860;4.286;2023-04-24T07:49:21;10.10;99.90
22738;DHT22;11536;50.860;4.286;2023-04-24T07:51:47;10.10;99.90
22738;DHT22;11536;50.860;4.286;2023-04-24T07:54:13;10.20;99.90
22738;DHT22;11536;50.860;4.286;2023-04-24T07:56:38;10.20;99.90
22738;DHT22;11536;50.860;4.286;2023-04-24T07:59:05;10.20;99.90
22738;DHT22;11536;50.860;4.286;2023-04-24T08:01:31;10.30;99.90
22738;DHT22;11536;50.860;4.286;2023-04-24T08:03:56;10.20;99.90
22738;DHT22;11536;50.860;4.286;2023-04-24T08:06:22;10.20;99.90
22738;DHT22;11536;50.860;4.286;2023-04-24T08:08:48;10.20;99.90
22738;DHT22;11536;50.860;4.286;2023-04-24T08:11:13;10.20;99.90
22738;DHT22;11536;50.860;4.286;2023-04-24T08:13:39;10.20;99.90
22738;DHT22;11536;50.860;4.286;2023-04-24T08:16:05;10.20;99.90
22738;DHT22;11536;50.860;4.286;2023-04-24T08:18:30;10.30;99.90
22738;DHT22;11536;50.860;4.286;2023-04-24T08:20:56;10.30;99.90
22738;DHT22;11536;50.860;4.286;2023-04-24T08:23:26;10.30;99.90
22738;DHT22;11536;50.860;4.286;2023-04-24T08:25:52;10.30;99.90
22738;DHT22;11536;50.860;4.286;2023-04-24T08:28:18;10.30;99.90
22738;DHT22;11536;50.860;4.286;2023-04-24T08:30:46;10.40;99.90
22738;DHT22;11536;50.860;4.286;2023-04-24T08:33:23;10.30;99.90
22738;DHT22;11536;50.860;4.286;2023-04-24T08:35:48;10.40;99.90
22738;DHT22;11536;50.860;4.286;2023-04-24T08:38:15;10.40;99.90
22738;DHT22;11536;50.860;4.286;2023-04-24T08:40:41;10.40;99.90
22738;DHT22;11536;50.860;4.286;2023-04-24T08:43:07;10.50;99.90
22738;DHT22;11536;50.860;4.286;2023-04-24T08:45:33;10.50;99.90
22738;DHT22;11536;50.860;4.286;2023-04-24T08:47:59;10.70;99.90
22738;DHT22;11536;50.860;4.286;2023-04-24T08:50:28;10.70;99.90
22738;DHT22;11536;50.860;4.286;2023-04-24T08:52:55;10.70;99.90
22738;DHT22;11536;50.860;4.286;2023-04-24T08:55:23;10.80;99.90
22738;DHT22;11536;50.860;4.286;2023-04-24T08:57:51;10.90;99.90
22738;DHT22;11536;50.860;4.286;2023-04-24T09:00:21;11.00;99.90
22738;DHT22;11536;50.860;4.286;2023-04-24T09:02:50;11.10;99.90
22738;DHT22;11536;50.860;4.286;2023-04-24T09:05:19;11.20;99.90
22738;DHT22;11536;50.860;4.286;2023-04-24T09:07:55;11.20;99.90
22738;DHT22;11536;50.860;4.286;2023-04-24T09:10:23;11.30;99.90
22738;DHT22;11536;50.860;4.286;2023-04-24T09:12:50;11.30;99.90
22738;DHT22;11536;50.860;4.286;2023-04-24T09:15:19;11.30;99.90
22738;DHT22;11536;50.860;4.286;2023-04-24T09:17:46;11.30;99.90
22738;DHT22;11536;50.860;4.286;2023-04-24T09:20:12;11.30;99.90
22738;DHT22;11536;50.860;4.286;2023-04-24T09:22:38;11.20;99.90
22738;DHT22;11536;50.860;4.286;2023-04-24T09:25:06;11.20;99.90
22738;DHT22;11536;50.860;4.286;2023-04-24T09:27:33;11.10;99.90
22738;DHT22;11536;50.860;4.286;2023-04-24T09:30:03;11.10;99.90
22738;DHT22;11536;50.860;4.286;2023-04-24T09:32:29;11.00;99.90
22738;DHT22;11536;50.860;4.286;2023-04-24T09:35:08;11.00;99.90
22738;DHT22;11536;50.860;4.286;2023-04-24T09:37:40;10.90;99.90
22738;DHT22;11536;50.860;4.286;2023-04-24T09:40:12;11.00;99.90
22738;DHT22;11536;50.860;4.286;2023-04-24T09:42:38;11.00;99.90
22738;DHT22;11536;50.860;4.286;2023-04-24T09:45:11;11.20;99.90
22738;DHT22;11536;50.860;4.286;2023-04-24T09:47:41;11.20;99.90
22738;DHT22;11536;50.860;4.286;2023-04-24T09:50:15;11.30;99.90
22738;DHT22;11536;50.860;4.286;2023-04-24T09:55:45;11.30;99.90
22738;DHT22;11536;50.860;4.286;2023-04-24T09:58:13;11.30;99.90
22738;DHT22;11536;50.860;4.286;2023-04-24T10:00:39;11.30;99.90
22738;DHT22;11536;50.860;4.286;2023-04-24T10:03:05;11.40;99.90
22738;DHT22;11536;50.860;4.286;2023-04-24T10:05:37;11.40;99.90
22738;DHT22;11536;50.860;4.286;2023-04-24T10:08:10;11.40;99.90
22738;DHT22;11536;50.860;4.286;2023-04-24T10:10:44;11.40;99.90
22738;DHT22;11536;50.860;4.286;2023-04-24T10:13:10;11.40;99.90
22738;DHT22;11536;50.860;4.286;2023-04-24T10:15:41;11.40;99.90
22738;DHT22;11536;50.860;4.286;2023-04-24T10:18:08;11.30;99.90
22738;DHT22;11536;50.860;4.286;2023-04-24T10:20:35;11.30;99.90
22738;DHT22;11536;50.860;4.286;2023-04-24T10:23:02;11.30;99.90
22738;DHT22;11536;50.860;4.286;2023-04-24T10:25:30;11.20;99.90
22738;DHT22;11536;50.860;4.286;2023-04-24T10:27:57;11.30;99.90
22738;DHT22;11536;50.860;4.286;2023-04-24T10:30:26;11.40;99.90
22738;DHT22;11536;50.860;4.286;2023-04-24T10:32:52;11.40;99.90
22738;DHT22;11536;50.860;4.286;2023-04-24T10:35:18;11.50;99.90
22738;DHT22;11536;50.860;4.286;2023-04-24T10:40:32;11.70;99.90
22738;DHT22;11536;50.860;4.286;2023-04-24T10:42:59;11.70;99.90
22738;DHT22;11536;50.860;4.286;2023-04-24T10:45:25;11.70;99.90
22738;DHT22;11536;50.860;4.286;2023-04-24T10:47:59;11.70;99.90
22738;DHT22;11536;50.860;4.286;2023-04-24T10:50:28;11.70;99.90
22738;DHT22;11536;50.860;4.286;2023-04-24T10:53:11;11.70;99.90
22738;DHT22;11536;50.860;4.286;2023-04-24T10:58:09;11.70;99.90
22738;DHT22;11536;50.860;4.286;2023-04-24T11:00:39;11.70;99.90
22738;DHT22;11536;50.860;4.286;2023-04-24T11:03:23;11.70;99.90
22738;DHT22;11536;50.860;4.286;2023-04-24T11:06:06;11.70;99.90
22738;DHT22;11536;50.860;4.286;2023-04-24T11:11:12;11.70;99.90
22738;DHT22;11536;50.860;4.286;2023-04-24T11:16:35;11.70;99.90
22738;DHT22;11536;50.860;4.286;2023-04-24T11:19:08;11.80;99.90
22738;DHT22;11536;50.860;4.286;2023-04-24T11:21:59;11.80;99.90
22738;DHT22;11536;50.860;4.286;2023-04-24T11:37:40;12.10;99.90
22738;DHT22;11536;50.860;4.286;2023-04-24T11:40:06;12.20;99.90
22738;DHT22;11536;50.860;4.286;2023-04-24T11:42:37;12.20;99.90
22738;DHT22;11536;50.860;4.286;2023-04-24T11:45:47;12.20;99.90
22738;DHT22;11536;50.860;4.286;2023-04-24T11:47:59;12.30;99.90
22738;DHT22;11536;50.860;4.286;2023-04-24T11:50:26;12.40;99.90
22738;DHT22;11536;50.860;4.286;2023-04-24T11:52:53;12.50;99.90
22738;DHT22;11536;50.860;4.286;2023-04-24T11:57:46;12.70;99.90
22738;DHT22;11536;50.860;4.286;2023-04-24T12:00:20;12.70;99.90
22738;DHT22;11536;50.860;4.286;2023-04-24T12:02:46;12.70;99.90
22738;DHT22;11536;50.860;4.286;2023-04-24T12:05:26;12.70;99.90
22738;DHT22;11536;50.860;4.286;2023-04-24T12:07:53;12.70;99.90
22738;DHT22;11536;50.860;4.286;2023-04-24T12:10:28;12.70;99.90
22738;DHT22;11536;50.860;4.286;2023-04-24T12:12:56;12.70;99.90
22738;DHT22;11536;50.860;4.286;2023-04-24T12:15:22;12.80;99.90
22738;DHT22;11536;50.860;4.286;2023-04-24T12:17:50;12.80;99.90
22738;DHT22;11536;50.860;4.286;2023-04-24T12:20:16;12.90;99.90
22738;DHT22;11536;50.860;4.286;2023-04-24T12:22:52;13.00;99.90
22738;DHT22;11536;50.860;4.286;2023-04-24T12:25:31;13.00;99.90
22738;DHT22;11536;50.860;4.286;2023-04-24T12:30:33;13.20;99.90
22738;DHT22;11536;50.860;4.286;2023-04-24T12:32:59;13.20;99.90
22738;DHT22;11536;50.860;4.286;2023-04-24T12:35:28;13.20;99.90
22738;DHT22;11536;50.860;4.286;2023-04-24T12:37:54;13.20;99.90
22738;DHT22;11536;50.860;4.286;2023-04-24T12:40:21;13.20;99.90
22738;DHT22;11536;50.860;4.286;2023-04-24T12:42:49;13.10;99.90
22738;DHT22;11536;50.860;4.286;2023-04-24T12:45:16;13.10;99.90
22738;DHT22;11536;50.860;4.286;2023-04-24T12:47:43;13.10;99.90
22738;DHT22;11536;50.860;4.286;2023-04-24T12:50:10;13.30;99.90
22738;DHT22;11536;50.860;4.286;2023-04-24T12:52:36;13.50;99.90
22738;DHT22;11536;50.860;4.286;2023-04-24T12:55:03;13.60;99.90
22738;DHT22;11536;50.860;4.286;2023-04-24T12:57:30;13.90;99.90
22738;DHT22;11536;50.860;4.286;2023-04-24T12:59:57;14.10;99.90
22738;DHT22;11536;50.860;4.286;2023-04-24T13:02:24;14.30;99.90
22738;DHT22;11536;50.860;4.286;2023-04-24T13:04:52;14.40;99.90
22738;DHT22;11536;50.860;4.286;2023-04-24T13:07:17;14.50;99.90
22738;DHT22;11536;50.860;4.286;2023-04-24T13:09:44;14.50;99.90
22738;DHT22;11536;50.860;4.286;2023-04-24T13:12:10;14.40;99.90
22738;DHT22;11536;50.860;4.286;2023-04-24T13:14:37;14.20;99.90
22738;DHT22;11536;50.860;4.286;2023-04-24T13:17:03;14.10;99.90
22738;DHT22;11536;50.860;4.286;2023-04-24T13:19:29;14.00;99.90
22738;DHT22;11536;50.860;4.286;2023-04-24T13:21:56;13.90;99.90
22738;DHT22;11536;50.860;4.286;2023-04-24T13:24:23;13.80;99.90
22738;DHT22;11536;50.860;4.286;2023-04-24T13:26:52;13.70;99.90
22738;DHT22;11536;50.860;4.286;2023-04-24T13:29:18;13.70;99.90
22738;DHT22;11536;50.860;4.286;2023-04-24T13:31:44;13.80;99.90
22738;DHT22;11536;50.860;4.286;2023-04-24T13:34:10;13.90;99.90
22738;DHT22;11536;50.860;4.286;2023-04-24T13:36:35;14.00;99.90
22738;DHT22;11536;50.860;4.286;2023-04-24T13:39:02;13.90;99.90
22738;DHT22;11536;50.860;4.286;2023-04-24T13:41:29;13.80;99.90
22738;DHT22;11536;50.860;4.286;2023-04-24T13:43:55;13.80;99.90
22738;DHT22;11536;50.860;4.286;2023-04-24T13:46:21;13.70;99.90
22738;DHT22;11536;50.860;4.286;2023-04-24T13:48:47;13.60;99.90
22738;DHT22;11536;50.860;4.286;2023-04-24T13:51:12;13.60;99.90
22738;DHT22;11536;50.860;4.286;2023-04-24T13:53:38;13.80;99.90
22738;DHT22;11536;50.860;4.286;2023-04-24T13:56:04;13.90;99.90
22738;DHT22;11536;50.860;4.286;2023-04-24T13:58:31;13.90;99.90
22738;DHT22;11536;50.860;4.286;2023-04-24T14:00:57;14.00;99.90
22738;DHT22;11536;50.860;4.286;2023-04-24T14:03:23;14.00;99.90
22738;DHT22;11536;50.860;4.286;2023-04-24T14:05:49;13.90;99.90
22738;DHT22;11536;50.860;4.286;2023-04-24T14:08:15;13.80;99.90
22738;DHT22;11536;50.860;4.286;2023-04-24T14:10:40;13.90;99.90
22738;DHT22;11536;50.860;4.286;2023-04-24T14:13:06;13.80;99.90
22738;DHT22;11536;50.860;4.286;2023-04-24T14:15:32;13.80;99.90
22738;DHT22;11536;50.860;4.286;2023-04-24T14:17:58;13.90;99.90
22738;DHT22;11536;50.860;4.286;2023-04-24T14:20:23;13.80;99.90
22738;DHT22;11536;50.860;4.286;2023-04-24T14:22:49;13.80;99.90
22738;DHT22;11536;50.860;4.286;2023-04-24T14:25:15;13.80;99.90
22738;DHT22;11536;50.860;4.286;2023-04-24T14:27:40;13.80;99.90
22738;DHT22;11536;50.860;4.286;2023-04-24T14:30:07;13.80;99.90
22738;DHT22;11536;50.860;4.286;2023-04-24T14:32:33;13.70;99.90
22738;DHT22;11536;50.860;4.286;2023-04-24T14:34:59;13.60;99.90
22738;DHT22;11536;50.860;4.286;2023-04-24T14:37:24;13.50;99.90
22738;DHT22;11536;50.860;4.286;2023-04-24T14:39:50;13.50;99.90
22738;DHT22;11536;50.860;4.286;2023-04-24T14:42:15;13.60;99.90
22738;DHT22;11536;50.860;4.286;2023-04-24T14:44:42;13.60;99.90
22738;DHT22;11536;50.860;4.286;2023-04-24T14:47:08;13.60;99.90
22738;DHT22;11536;50.860;4.286;2023-04-24T14:49:34;13.50;99.90
22738;DHT22;11536;50.860;4.286;2023-04-24T14:51:59;13.50;99.90
22738;DHT22;11536;50.860;4.286;2023-04-24T14:54:25;13.40;99.90
22738;DHT22;11536;50.860;4.286;2023-04-24T14:56:53;13.50;99.90
22738;DHT22;11536;50.860;4.286;2023-04-24T14:59:22;13.40;99.90
22738;DHT22;11536;50.860;4.286;2023-04-24T15:01:48;13.50;99.90
22738;DHT22;11536;50.860;4.286;2023-04-24T15:04:15;13.50;99.90
22738;DHT22;11536;50.860;4.286;2023-04-24T15:06:41;13.50;99.90
22738;DHT22;11536;50.860;4.286;2023-04-24T15:09:07;13.50;99.90
22738;DHT22;11536;50.860;4.286;2023-04-24T15:11:32;13.40;99.90
22738;DHT22;11536;50.860;4.286;2023-04-24T15:13:58;13.40;99.90
22738;DHT22;11536;50.860;4.286;2023-04-24T15:16:24;13.40;99.90
22738;DHT22;11536;50.860;4.286;2023-04-24T15:18:50;13.40;99.90
22738;DHT22;11536;50.860;4.286;2023-04-24T15:21:16;13.30;99.90
22738;DHT22;11536;50.860;4.286;2023-04-24T15:23:43;13.30;99.90
22738;DHT22;11536;50.860;4.286;2023-04-24T15:26:09;13.40;99.90
22738;DHT22;11536;50.860;4.286;2023-04-24T15:28:35;13.30;99.90
22738;DHT22;11536;50.860;4.286;2023-04-24T15:31:01;13.30;99.90
22738;DHT22;11536;50.860;4.286;2023-04-24T15:33:26;13.30;99.90
22738;DHT22;11536;50.860;4.286;2023-04-24T15:35:52;13.20;99.90
22738;DHT22;11536;50.860;4.286;2023-04-24T15:38:17;13.10;99.90
22738;DHT22;11536;50.860;4.286;2023-04-24T15:40:43;13.00;99.90
22738;DHT22;11536;50.860;4.286;2023-04-24T15:43:10;13.00;99.90
22738;DHT22;11536;50.860;4.286;2023-04-24T15:45:36;13.00;99.90
22738;DHT22;11536;50.860;4.286;2023-04-24T15:48:01;13.00;99.90
22738;DHT22;11536;50.860;4.286;2023-04-24T15:50:27;13.00;99.90
22738;DHT22;11536;50.860;4.286;2023-04-24T15:52:53;13.00;99.90
22738;DHT22;11536;50.860;4.286;2023-04-24T15:55:22;13.00;99.90
22738;DHT22;11536;50.860;4.286;2023-04-24T15:57:48;13.00;99.90
22738;DHT22;11536;50.860;4.286;2023-04-24T16:00:14;13.00;99.90
22738;DHT22;11536;50.860;4.286;2023-04-24T16:02:40;12.90;99.90